sensor_id;sensor_type;location;lat;lon;timestamp;pressure;altitude;pressure_sealevel;temperature;humidity
50087;BME280;35967;50.718;7.050;2023-02-20T00:07:49;101900.78;;;7.77;84.98
50087;BME280;35967;50.718;7.050;2023-02-20T00:17:52;101891.25;;;7.62;84.66
50087;BME280;35967;50.718;7.050;2023-02-20T00:27:56;101886.56;;;7.25;85.04
50087;BME280;35967;50.718;7.050;2023-02-20T00:38:00;101866.97;;;7.24;85.06
50087;BME280;35967;50.718;7.050;2023-02-20T00:48:04;101844.47;;;6.99;85.60
50087;BME280;35967;50.718;7.050;2023-02-20T00:58:08;101849.41;;;6.86;85.17
50087;BME280;35967;50.718;7.050;2023-02-20T01:08:12;101844.47;;;6.99;84.18
50087;BME280;35967;50.718;7.050;2023-02-20T01:18:16;101840.00;;;6.84;84.87
50087;BME280;35967;50.718;7.050;2023-02-20T01:28:20;101835.91;;;6.97;84.72
50087;BME280;35967;50.718;7.050;2023-02-20T01:38:24;101818.97;;;7.09;84.13
50087;BME280;35967;50.718;7.050;2023-02-20T01:48:29;101812.09;;;7.05;83.52
50087;BME280;35967;50.718;7.050;2023-02-20T01:58:35;101811.34;;;7.14;82.63
50087;BME280;35967;50.718;7.050;2023-02-20T02:08:45;101800.13;;;7.03;82.74
50087;BME280;35967;50.718;7.050;2023-02-20T02:18:53;101779.53;;;6.93;83.11
50087;BME280;35967;50.718;7.050;2023-02-20T02:29:26;101761.59;;;6.89;82.83
50087;BME280;35967;50.718;7.050;2023-02-20T02:39:45;101738.56;;;6.89;82.84
50087;BME280;35967;50.718;7.050;2023-02-20T02:49:55;101740.34;;;6.96;82.96
50087;BME280;35967;50.718;7.050;2023-02-20T03:00:05;101735.13;;;6.87;83.53
50087;BME280;35967;50.718;7.050;2023-02-20T03:10:14;101726.50;;;6.77;83.96
50087;BME280;35967;50.718;7.050;2023-02-20T03:20:23;101718.50;;;6.49;84.86
50087;BME280;35967;50.718;7.050;2023-02-20T03:30:29;101693.50;;;6.26;85.39
50087;BME280;35967;50.718;7.050;2023-02-20T03:40:36;101691.59;;;6.10;86.24
50087;BME280;35967;50.718;7.050;2023-02-20T03:50:59;101683.22;;;6.22;86.42
50087;BME280;35967;50.718;7.050;2023-02-20T04:01:27;101694.03;;;6.02;85.82
50087;BME280;35967;50.718;7.050;2023-02-20T04:11:33;101681.34;;;6.10;86.53
50087;BME280;35967;50.718;7.050;2023-02-20T04:21:42;101690.19;;;6.34;85.61
50087;BME280;35967;50.718;7.050;2023-02-20T04:31:48;101685.59;;;6.09;85.67
50087;BME280;35967;50.718;7.050;2023-02-20T04:41:53;101671.16;;;6.13;85.47
50087;BME280;35967;50.718;7.050;2023-02-20T04:51:56;101669.41;;;6.09;85.34
50087;BME280;35967;50.718;7.050;2023-02-20T05:02:01;101664.31;;;6.09;85.34
50087;BME280;35967;50.718;7.050;2023-02-20T05:12:04;101679.47;;;5.96;85.04
50087;BME280;35967;50.718;7.050;2023-02-20T05:22:10;101673.13;;;5.71;84.64
50087;BME280;35967;50.718;7.050;2023-02-20T05:32:25;101665.13;;;5.48;84.05
50087;BME280;35967;50.718;7.050;2023-02-20T05:42:30;101639.50;;;5.42;83.86
50087;BME280;35967;50.718;7.050;2023-02-20T05:52:33;101626.09;;;5.57;84.02
50087;BME280;35967;50.718;7.050;2023-02-20T06:02:37;101623.81;;;5.75;85.06
50087;BME280;35967;50.718;7.050;2023-02-20T06:12:40;101624.44;;;5.62;85.60
50087;BME280;35967;50.718;7.050;2023-02-20T06:22:46;101616.56;;;5.46;85.52
50087;BME280;35967;50.718;7.050;2023-02-20T06:32:48;101616.69;;;5.52;85.71
50087;BME280;35967;50.718;7.050;2023-02-20T06:42:53;101617.66;;;5.61;85.58
50087;BME280;35967;50.718;7.050;2023-02-20T06:52:56;101629.69;;;5.68;86.24
50087;BME280;35967;50.718;7.050;2023-02-20T07:03:01;101612.81;;;5.82;85.79
50087;BME280;35967;50.718;7.050;2023-02-20T07:13:04;101613.75;;;5.89;86.79
50087;BME280;35967;50.718;7.050;2023-02-20T07:23:09;101602.94;;;6.07;86.82
50087;BME280;35967;50.718;7.050;2023-02-20T07:33:13;101607.56;;;6.41;85.89
50087;BME280;35967;50.718;7.050;2023-02-20T07:43:18;101616.28;;;6.58;84.79
50087;BME280;35967;50.718;7.050;2023-02-20T07:53:24;101630.94;;;6.75;85.43
50087;BME280;35967;50.718;7.050;2023-02-20T08:03:28;101631.81;;;6.82;87.25
50087;BME280;35967;50.718;7.050;2023-02-20T08:13:31;101641.31;;;6.93;88.34
50087;BME280;35967;50.718;7.050;2023-02-20T08:23:36;101638.97;;;7.15;87.71
50087;BME280;35967;50.718;7.050;2023-02-20T08:33:39;101651.78;;;7.18;89.16
50087;BME280;35967;50.718;7.050;2023-02-20T08:43:44;101651.03;;;7.35;87.91
50087;BME280;35967;50.718;7.050;2023-02-20T08:53:47;101654.31;;;7.18;85.23
50087;BME280;35967;50.718;7.050;2023-02-20T09:03:51;101657.84;;;7.30;84.27
50087;BME280;35967;50.718;7.050;2023-02-20T09:13:54;101680.81;;;7.22;84.67
50087;BME280;35967;50.718;7.050;2023-02-20T09:23:59;101683.50;;;7.34;85.24
50087;BME280;35967;50.718;7.050;2023-02-20T09:34:03;101678.47;;;7.50;85.09
50087;BME280;35967;50.718;7.050;2023-02-20T09:44:12;101682.88;;;7.68;84.51
50087;BME280;35967;50.718;7.050;2023-02-20T09:54:22;101677.88;;;7.85;84.07
50087;BME280;35967;50.718;7.050;2023-02-20T10:04:29;101659.09;;;7.94;82.96
50087;BME280;35967;50.718;7.050;2023-02-20T10:14:43;101649.81;;;8.16;81.35
50087;BME280;35967;50.718;7.050;2023-02-20T10:35:24;101623.47;;;8.87;82.67
50087;BME280;35967;50.718;7.050;2023-02-20T10:45:40;101624.31;;;8.98;81.04
50087;BME280;35967;50.718;7.050;2023-02-20T10:55:48;101628.59;;;9.00;78.85
50087;BME280;35967;50.718;7.050;2023-02-20T11:05:58;101620.00;;;9.45;77.67
50087;BME280;35967;50.718;7.050;2023-02-20T11:16:08;101613.03;;;9.90;75.56
50087;BME280;35967;50.718;7.050;2023-02-20T11:26:31;101595.53;;;10.56;72.58
50087;BME280;35967;50.718;7.050;2023-02-20T11:36:38;101585.94;;;10.81;71.63
50087;BME280;35967;50.718;7.050;2023-02-20T11:47:07;101561.91;;;10.76;71.36
50087;BME280;35967;50.718;7.050;2023-02-20T11:57:20;101542.22;;;11.55;70.83
50087;BME280;35967;50.718;7.050;2023-02-20T12:07:31;101521.78;;;12.09;74.87
50087;BME280;35967;50.718;7.050;2023-02-20T12:17:41;101503.44;;;12.26;72.89
50087;BME280;35967;50.718;7.050;2023-02-20T12:27:59;101462.47;;;12.59;69.62
50087;BME280;35967;50.718;7.050;2023-02-20T12:38:26;101455.03;;;12.89;68.03
50087;BME280;35967;50.718;7.050;2023-02-20T12:48:42;101447.44;;;13.25;67.85
50087;BME280;35967;50.718;7.050;2023-02-20T12:58:58;101428.03;;;13.48;67.06
50087;BME280;35967;50.718;7.050;2023-02-20T13:09:14;101412.06;;;13.67;69.14
50087;BME280;35967;50.718;7.050;2023-02-20T13:19:24;101407.97;;;13.96;68.69
50087;BME280;35967;50.718;7.050;2023-02-20T13:29:30;101399.22;;;13.64;69.67
50087;BME280;35967;50.718;7.050;2023-02-20T13:39:40;101396.84;;;13.92;69.36
50087;BME280;35967;50.718;7.050;2023-02-20T13:49:54;101378.09;;;13.43;69.83
50087;BME280;35967;50.718;7.050;2023-02-20T14:00:00;101378.22;;;13.76;69.04
50087;BME280;35967;50.718;7.050;2023-02-20T14:10:15;101363.13;;;13.94;69.35
50087;BME280;35967;50.718;7.050;2023-02-20T14:20:21;101340.16;;;14.14;68.12
50087;BME280;35967;50.718;7.050;2023-02-20T14:30:27;101323.97;;;13.35;71.38
50087;BME280;35967;50.718;7.050;2023-02-20T14:40:34;101306.06;;;13.26;73.17
50087;BME280;35967;50.718;7.050;2023-02-20T14:50:40;101282.19;;;13.15;73.88
50087;BME280;35967;50.718;7.050;2023-02-20T15:00:44;101269.03;;;12.86;74.44
50087;BME280;35967;50.718;7.050;2023-02-20T15:10:50;101271.50;;;12.91;74.96
50087;BME280;35967;50.718;7.050;2023-02-20T15:20:54;101260.81;;;12.69;75.36
50087;BME280;35967;50.718;7.050;2023-02-20T15:31:05;101262.56;;;12.67;75.77
50087;BME280;35967;50.718;7.050;2023-02-20T15:41:09;101265.41;;;12.54;76.66
50087;BME280;35967;50.718;7.050;2023-02-20T16:03:16;101307.72;;;12.02;77.58
50087;BME280;35967;50.718;7.050;2023-02-20T16:13:23;101291.97;;;11.65;79.21
50087;BME280;35967;50.718;7.050;2023-02-20T16:23:31;101312.88;;;11.47;79.77
50087;BME280;35967;50.718;7.050;2023-02-20T16:33:34;101334.84;;;11.12;79.61
50087;BME280;35967;50.718;7.050;2023-02-20T16:43:39;101335.94;;;10.94;80.32
50087;BME280;35967;50.718;7.050;2023-02-20T16:53:42;101362.63;;;10.88;80.16
50087;BME280;35967;50.718;7.050;2023-02-20T17:03:46;101367.09;;;10.73;81.38
50087;BME280;35967;50.718;7.050;2023-02-20T17:13:49;101369.53;;;10.84;79.92
50087;BME280;35967;50.718;7.050;2023-02-20T17:23:54;101394.66;;;10.62;80.97
50087;BME280;35967;50.718;7.050;2023-02-20T17:33:57;101384.13;;;10.85;82.77
50087;BME280;35967;50.718;7.050;2023-02-20T17:44:01;101411.91;;;10.54;80.60
50087;BME280;35967;50.718;7.050;2023-02-20T17:54:05;101418.06;;;10.39;81.09
50087;BME280;35967;50.718;7.050;2023-02-20T18:04:10;101413.88;;;10.22;81.12
50087;BME280;35967;50.718;7.050;2023-02-20T18:14:14;101412.25;;;10.15;81.36
50087;BME280;35967;50.718;7.050;2023-02-20T18:24:21;101410.63;;;10.03;81.61
50087;BME280;35967;50.718;7.050;2023-02-20T18:34:26;101414.00;;;10.08;81.11
50087;BME280;35967;50.718;7.050;2023-02-20T18:44:31;101415.78;;;10.00;81.38
50087;BME280;35967;50.718;7.050;2023-02-20T18:54:34;101411.53;;;9.93;81.79
50087;BME280;35967;50.718;7.050;2023-02-20T19:04:39;101412.53;;;9.72;82.77
50087;BME280;35967;50.718;7.050;2023-02-20T19:14:42;101434.75;;;9.87;82.03
50087;BME280;35967;50.718;7.050;2023-02-20T19:24:46;101427.91;;;9.78;82.60
50087;BME280;35967;50.718;7.050;2023-02-20T19:34:49;101409.81;;;9.92;82.31
50087;BME280;35967;50.718;7.050;2023-02-20T19:44:55;101415.06;;;9.78;82.62
50087;BME280;35967;50.718;7.050;2023-02-20T19:54:58;101411.66;;;9.76;83.28
50087;BME280;35967;50.718;7.050;2023-02-20T20:05:03;101405.69;;;9.71;82.90
50087;BME280;35967;50.718;7.050;2023-02-20T20:15:06;101385.28;;;9.46;83.87
50087;BME280;35967;50.718;7.050;2023-02-20T20:25:12;101378.13;;;10.85;86.88
50087;BME280;35967;50.718;7.050;2023-02-20T20:35:15;101381.06;;;9.34;84.71
50087;BME280;35967;50.718;7.050;2023-02-20T20:45:21;101380.19;;;9.38;85.16
50087;BME280;35967;50.718;7.050;2023-02-20T20:55:25;101380.06;;;9.55;84.42
50087;BME280;35967;50.718;7.050;2023-02-20T21:05:32;101372.44;;;9.47;84.32
50087;BME280;35967;50.718;7.050;2023-02-20T21:15:36;101381.91;;;9.36;84.63
50087;BME280;35967;50.718;7.050;2023-02-20T21:25:41;101375.03;;;9.41;84.74
50087;BME280;35967;50.718;7.050;2023-02-20T21:35:44;101370.03;;;9.13;85.31
50087;BME280;35967;50.718;7.050;2023-02-20T21:45:49;101369.97;;;9.29;85.52
50087;BME280;35967;50.718;7.050;2023-02-20T21:55:54;101375.19;;;9.09;86.91
50087;BME280;35967;50.718;7.050;2023-02-20T22:05:58;101363.16;;;9.22;85.69
50087;BME280;35967;50.718;7.050;2023-02-20T22:16:00;101360.56;;;9.22;85.73
50087;BME280;35967;50.718;7.050;2023-02-20T22:26:22;101352.03;;;9.21;86.04
50087;BME280;35967;50.718;7.050;2023-02-20T22:36:43;101344.34;;;9.17;85.82
50087;BME280;35967;50.718;7.050;2023-02-20T22:47:08;101318.66;;;9.13;86.51
50087;BME280;35967;50.718;7.050;2023-02-20T22:57:29;101300.59;;;9.26;85.78
50087;BME280;35967;50.718;7.050;2023-02-20T23:07:51;101289.53;;;9.19;86.39
50087;BME280;35967;50.718;7.050;2023-02-20T23:18:12;101300.00;;;8.83;87.59
50087;BME280;35967;50.718;7.050;2023-02-20T23:28:34;101305.00;;;9.05;87.52
50087;BME280;35967;50.718;7.050;2023-02-20T23:38:54;101305.88;;;9.03;87.07
50087;BME280;35967;50.718;7.050;2023-02-20T23:49:17;101305.88;;;9.03;87.23
50087;BME280;35967;50.718;7.050;2023-02-20T23:59:37;101289.56;;;9.14;87.42
